sensor_id;sensor_type;location;lat;lon;timestamp;temperature;humidity
21844;DHT22;11084;52.482;9.108;2022-07-10T00:00:45;14.00;99.90
21844;DHT22;11084;52.482;9.108;2022-07-10T00:03:11;14.00;99.90
21844;DHT22;11084;52.482;9.108;2022-07-10T00:05:37;14.00;99.90
21844;DHT22;11084;52.482;9.108;2022-07-10T00:08:03;14.00;99.90
21844;DHT22;11084;52.482;9.108;2022-07-10T00:10:29;14.00;99.90
21844;DHT22;11084;52.482;9.108;2022-07-10T00:12:56;13.90;99.90
21844;DHT22;11084;52.482;9.108;2022-07-10T00:15:22;13.90;99.90
21844;DHT22;11084;52.482;9.108;2022-07-10T00:17:48;14.00;99.90
21844;DHT22;11084;52.482;9.108;2022-07-10T00:20:15;14.00;99.90
21844;DHT22;11084;52.482;9.108;2022-07-10T00:25:11;13.90;99.90
21844;DHT22;11084;52.482;9.108;2022-07-10T00:27:38;14.30;99.90
21844;DHT22;11084;52.482;9.108;2022-07-10T00:30:05;13.90;99.90
21844;DHT22;11084;52.482;9.108;2022-07-10T00:32:32;13.90;99.90
21844;DHT22;11084;52.482;9.108;2022-07-10T00:34:58;13.90;99.90
21844;DHT22;11084;52.482;9.108;2022-07-10T00:37:24;13.90;99.90
21844;DHT22;11084;52.482;9.108;2022-07-10T00:39:50;13.90;99.90
21844;DHT22;11084;52.482;9.108;2022-07-10T00:42:16;13.90;99.90
21844;DHT22;11084;52.482;9.108;2022-07-10T00:44:43;13.80;99.90
21844;DHT22;11084;52.482;9.108;2022-07-10T00:47:10;13.90;99.90
21844;DHT22;11084;52.482;9.108;2022-07-10T00:49:38;13.80;99.90
21844;DHT22;11084;52.482;9.108;2022-07-10T00:52:10;13.90;99.90
21844;DHT22;11084;52.482;9.108;2022-07-10T00:54:37;13.90;99.90
21844;DHT22;11084;52.482;9.108;2022-07-10T00:57:07;13.90;99.90
21844;DHT22;11084;52.482;9.108;2022-07-10T00:59:34;13.90;99.90
21844;DHT22;11084;52.482;9.108;2022-07-10T01:02:02;13.90;99.90
21844;DHT22;11084;52.482;9.108;2022-07-10T01:04:29;13.90;99.90
21844;DHT22;11084;52.482;9.108;2022-07-10T01:06:56;13.90;99.90
21844;DHT22;11084;52.482;9.108;2022-07-10T01:09:22;13.90;99.90
21844;DHT22;11084;52.482;9.108;2022-07-10T01:11:48;13.90;99.90
21844;DHT22;11084;52.482;9.108;2022-07-10T01:14:15;13.90;99.90
21844;DHT22;11084;52.482;9.108;2022-07-10T01:16:42;13.90;99.90
21844;DHT22;11084;52.482;9.108;2022-07-10T01:21:36;13.90;99.90
21844;DHT22;11084;52.482;9.108;2022-07-10T01:24:07;13.90;99.90
21844;DHT22;11084;52.482;9.108;2022-07-10T01:26:35;13.90;99.90
21844;DHT22;11084;52.482;9.108;2022-07-10T01:29:04;13.90;99.90
21844;DHT22;11084;52.482;9.108;2022-07-10T01:34:00;13.90;99.90
21844;DHT22;11084;52.482;9.108;2022-07-10T01:36:28;13.90;99.90
21844;DHT22;11084;52.482;9.108;2022-07-10T01:38:56;13.90;99.90
21844;DHT22;11084;52.482;9.108;2022-07-10T01:41:23;13.90;99.90
21844;DHT22;11084;52.482;9.108;2022-07-10T01:43:49;13.90;99.90
21844;DHT22;11084;52.482;9.108;2022-07-10T01:46:16;13.90;99.90
21844;DHT22;11084;52.482;9.108;2022-07-10T01:48:42;13.90;99.90
21844;DHT22;11084;52.482;9.108;2022-07-10T01:51:09;13.80;99.90
21844;DHT22;11084;52.482;9.108;2022-07-10T01:53:36;13.80;99.90
21844;DHT22;11084;52.482;9.108;2022-07-10T01:56:05;13.90;99.90
21844;DHT22;11084;52.482;9.108;2022-07-10T01:58:33;13.90;99.90
21844;DHT22;11084;52.482;9.108;2022-07-10T02:01:00;13.80;99.90
21844;DHT22;11084;52.482;9.108;2022-07-10T02:03:26;13.90;99.90
21844;DHT22;11084;52.482;9.108;2022-07-10T02:06:28;13.80;99.90
21844;DHT22;11084;52.482;9.108;2022-07-10T02:08:54;13.90;99.90
21844;DHT22;11084;52.482;9.108;2022-07-10T02:11:21;13.90;99.90
21844;DHT22;11084;52.482;9.108;2022-07-10T02:13:46;13.90;99.90
21844;DHT22;11084;52.482;9.108;2022-07-10T02:16:13;13.90;99.90
21844;DHT22;11084;52.482;9.108;2022-07-10T02:18:39;13.90;99.90
21844;DHT22;11084;52.482;9.108;2022-07-10T02:21:06;13.90;99.90
21844;DHT22;11084;52.482;9.108;2022-07-10T02:23:32;13.90;99.90
21844;DHT22;11084;52.482;9.108;2022-07-10T02:25:59;13.90;99.90
21844;DHT22;11084;52.482;9.108;2022-07-10T02:28:25;13.90;99.90
21844;DHT22;11084;52.482;9.108;2022-07-10T02:30:51;13.90;99.90
21844;DHT22;11084;52.482;9.108;2022-07-10T02:33:17;13.90;99.90
21844;DHT22;11084;52.482;9.108;2022-07-10T02:38:09;13.90;99.90
21844;DHT22;11084;52.482;9.108;2022-07-10T02:40:35;14.50;99.90
21844;DHT22;11084;52.482;9.108;2022-07-10T02:43:01;13.90;99.90
21844;DHT22;11084;52.482;9.108;2022-07-10T02:45:27;13.90;99.90
21844;DHT22;11084;52.482;9.108;2022-07-10T02:47:53;13.90;99.90
21844;DHT22;11084;52.482;9.108;2022-07-10T02:50:19;13.90;99.90
21844;DHT22;11084;52.482;9.108;2022-07-10T02:52:45;13.90;99.90
21844;DHT22;11084;52.482;9.108;2022-07-10T02:55:11;13.90;99.90
21844;DHT22;11084;52.482;9.108;2022-07-10T02:57:37;13.90;99.90
21844;DHT22;11084;52.482;9.108;2022-07-10T03:00:04;13.90;99.90
21844;DHT22;11084;52.482;9.108;2022-07-10T03:02:30;13.90;99.90
21844;DHT22;11084;52.482;9.108;2022-07-10T03:04:56;13.90;99.90
21844;DHT22;11084;52.482;9.108;2022-07-10T03:07:22;13.90;99.90
21844;DHT22;11084;52.482;9.108;2022-07-10T03:09:48;13.90;99.90
21844;DHT22;11084;52.482;9.108;2022-07-10T03:12:14;13.90;99.90
21844;DHT22;11084;52.482;9.108;2022-07-10T03:14:40;13.90;99.90
21844;DHT22;11084;52.482;9.108;2022-07-10T03:17:06;13.80;99.90
21844;DHT22;11084;52.482;9.108;2022-07-10T03:19:32;13.80;99.90
21844;DHT22;11084;52.482;9.108;2022-07-10T03:21:59;13.80;99.90
21844;DHT22;11084;52.482;9.108;2022-07-10T03:24:25;13.80;99.90
21844;DHT22;11084;52.482;9.108;2022-07-10T03:26:51;13.80;99.90
21844;DHT22;11084;52.482;9.108;2022-07-10T03:29:17;13.80;99.90
21844;DHT22;11084;52.482;9.108;2022-07-10T03:31:43;13.80;99.90
21844;DHT22;11084;52.482;9.108;2022-07-10T03:36:35;13.80;99.90
21844;DHT22;11084;52.482;9.108;2022-07-10T03:39:01;13.80;99.90
21844;DHT22;11084;52.482;9.108;2022-07-10T03:41:27;13.80;99.90
21844;DHT22;11084;52.482;9.108;2022-07-10T03:43:53;13.80;99.90
21844;DHT22;11084;52.482;9.108;2022-07-10T03:46:19;13.80;99.90
21844;DHT22;11084;52.482;9.108;2022-07-10T03:48:45;13.70;99.90
21844;DHT22;11084;52.482;9.108;2022-07-10T03:51:11;13.80;99.90
21844;DHT22;11084;52.482;9.108;2022-07-10T03:53:37;13.80;99.90
21844;DHT22;11084;52.482;9.108;2022-07-10T03:56:04;13.70;99.90
21844;DHT22;11084;52.482;9.108;2022-07-10T03:58:30;13.70;99.90
21844;DHT22;11084;52.482;9.108;2022-07-10T04:00:56;13.70;99.90
21844;DHT22;11084;52.482;9.108;2022-07-10T04:03:22;13.70;99.90
21844;DHT22;11084;52.482;9.108;2022-07-10T04:05:48;13.80;99.90
21844;DHT22;11084;52.482;9.108;2022-07-10T04:08:14;13.70;99.90
21844;DHT22;11084;52.482;9.108;2022-07-10T04:10:40;13.70;99.90
21844;DHT22;11084;52.482;9.108;2022-07-10T04:13:06;13.70;99.90
21844;DHT22;11084;52.482;9.108;2022-07-10T04:15:32;13.70;99.90
21844;DHT22;11084;52.482;9.108;2022-07-10T04:17:58;13.70;99.90
21844;DHT22;11084;52.482;9.108;2022-07-10T04:20:25;13.70;99.90
21844;DHT22;11084;52.482;9.108;2022-07-10T04:22:51;13.70;99.90
21844;DHT22;11084;52.482;9.108;2022-07-10T04:25:17;13.70;99.90
21844;DHT22;11084;52.482;9.108;2022-07-10T04:27:43;13.70;99.90
21844;DHT22;11084;52.482;9.108;2022-07-10T04:30:09;13.70;99.90
21844;DHT22;11084;52.482;9.108;2022-07-10T04:32:36;13.70;99.90
21844;DHT22;11084;52.482;9.108;2022-07-10T04:35:02;13.70;99.90
21844;DHT22;11084;52.482;9.108;2022-07-10T04:37:29;13.70;99.90
21844;DHT22;11084;52.482;9.108;2022-07-10T04:39:55;13.70;99.90
21844;DHT22;11084;52.482;9.108;2022-07-10T04:42:21;13.90;99.90
21844;DHT22;11084;52.482;9.108;2022-07-10T04:44:47;13.90;99.90
21844;DHT22;11084;52.482;9.108;2022-07-10T04:47:13;14.00;99.90
21844;DHT22;11084;52.482;9.108;2022-07-10T04:49:39;14.10;99.90
21844;DHT22;11084;52.482;9.108;2022-07-10T04:52:06;14.20;99.90
21844;DHT22;11084;52.482;9.108;2022-07-10T04:54:32;14.30;99.90
21844;DHT22;11084;52.482;9.108;2022-07-10T04:56:58;14.30;99.90
21844;DHT22;11084;52.482;9.108;2022-07-10T04:59:25;14.30;99.90
21844;DHT22;11084;52.482;9.108;2022-07-10T05:01:51;14.30;99.90
21844;DHT22;11084;52.482;9.108;2022-07-10T05:04:20;14.30;99.90
21844;DHT22;11084;52.482;9.108;2022-07-10T05:06:46;14.30;99.90
21844;DHT22;11084;52.482;9.108;2022-07-10T05:09:12;14.40;99.90
21844;DHT22;11084;52.482;9.108;2022-07-10T05:11:38;14.40;99.90
21844;DHT22;11084;52.482;9.108;2022-07-10T05:14:04;14.40;99.90
21844;DHT22;11084;52.482;9.108;2022-07-10T05:16:30;14.50;99.90
21844;DHT22;11084;52.482;9.108;2022-07-10T05:18:56;14.50;99.90
21844;DHT22;11084;52.482;9.108;2022-07-10T05:21:22;14.50;99.90
21844;DHT22;11084;52.482;9.108;2022-07-10T05:23:48;14.60;99.90
21844;DHT22;11084;52.482;9.108;2022-07-10T05:26:14;14.60;99.90
21844;DHT22;11084;52.482;9.108;2022-07-10T05:28:41;14.70;99.90
21844;DHT22;11084;52.482;9.108;2022-07-10T05:31:07;14.80;99.90
21844;DHT22;11084;52.482;9.108;2022-07-10T05:33:33;14.90;99.90
21844;DHT22;11084;52.482;9.108;2022-07-10T05:35:59;14.90;99.90
21844;DHT22;11084;52.482;9.108;2022-07-10T05:38:25;14.90;99.90
21844;DHT22;11084;52.482;9.108;2022-07-10T05:40:51;15.00;99.90
21844;DHT22;11084;52.482;9.108;2022-07-10T05:43:19;15.10;99.90
21844;DHT22;11084;52.482;9.108;2022-07-10T05:45:45;15.10;99.90
21844;DHT22;11084;52.482;9.108;2022-07-10T05:48:11;15.20;99.90
21844;DHT22;11084;52.482;9.108;2022-07-10T05:50:37;15.20;99.90
21844;DHT22;11084;52.482;9.108;2022-07-10T05:53:03;15.30;99.90
21844;DHT22;11084;52.482;9.108;2022-07-10T05:55:29;15.40;99.90
21844;DHT22;11084;52.482;9.108;2022-07-10T05:57:54;15.40;99.90
21844;DHT22;11084;52.482;9.108;2022-07-10T06:00:21;15.50;99.90
21844;DHT22;11084;52.482;9.108;2022-07-10T06:02:47;15.70;99.90
21844;DHT22;11084;52.482;9.108;2022-07-10T06:05:13;15.70;99.90
21844;DHT22;11084;52.482;9.108;2022-07-10T06:07:39;15.70;99.90
21844;DHT22;11084;52.482;9.108;2022-07-10T06:10:06;15.90;99.90
21844;DHT22;11084;52.482;9.108;2022-07-10T06:12:32;16.00;99.90
21844;DHT22;11084;52.482;9.108;2022-07-10T06:14:59;16.00;99.90
21844;DHT22;11084;52.482;9.108;2022-07-10T06:17:24;16.10;99.90
21844;DHT22;11084;52.482;9.108;2022-07-10T06:19:54;16.30;99.90
21844;DHT22;11084;52.482;9.108;2022-07-10T06:22:20;16.70;99.90
21844;DHT22;11084;52.482;9.108;2022-07-10T06:25:00;17.10;99.90
21844;DHT22;11084;52.482;9.108;2022-07-10T06:27:28;17.10;99.90
21844;DHT22;11084;52.482;9.108;2022-07-10T06:29:55;17.50;99.90
21844;DHT22;11084;52.482;9.108;2022-07-10T06:32:21;17.90;99.90
21844;DHT22;11084;52.482;9.108;2022-07-10T06:34:47;18.30;99.90
21844;DHT22;11084;52.482;9.108;2022-07-10T06:37:14;18.50;99.90
21844;DHT22;11084;52.482;9.108;2022-07-10T06:39:40;18.70;99.90
21844;DHT22;11084;52.482;9.108;2022-07-10T06:42:06;18.70;99.90
21844;DHT22;11084;52.482;9.108;2022-07-10T06:44:39;19.50;99.90
21844;DHT22;11084;52.482;9.108;2022-07-10T06:47:07;19.70;99.90
21844;DHT22;11084;52.482;9.108;2022-07-10T06:49:53;19.80;99.90
21844;DHT22;11084;52.482;9.108;2022-07-10T06:52:19;19.80;99.90
21844;DHT22;11084;52.482;9.108;2022-07-10T06:54:46;19.90;99.90
21844;DHT22;11084;52.482;9.108;2022-07-10T06:57:13;20.30;99.90
21844;DHT22;11084;52.482;9.108;2022-07-10T06:59:39;20.30;99.80
21844;DHT22;11084;52.482;9.108;2022-07-10T07:02:05;20.30;99.90
21844;DHT22;11084;52.482;9.108;2022-07-10T07:04:34;20.20;99.90
21844;DHT22;11084;52.482;9.108;2022-07-10T07:07:02;20.00;99.90
21844;DHT22;11084;52.482;9.108;2022-07-10T07:09:28;20.00;99.90
21844;DHT22;11084;52.482;9.108;2022-07-10T07:11:54;19.90;99.90
21844;DHT22;11084;52.482;9.108;2022-07-10T07:14:20;19.80;99.80
21844;DHT22;11084;52.482;9.108;2022-07-10T07:16:46;20.60;99.90
21844;DHT22;11084;52.482;9.108;2022-07-10T07:19:23;20.10;99.90
21844;DHT22;11084;52.482;9.108;2022-07-10T07:21:59;20.30;99.40
21844;DHT22;11084;52.482;9.108;2022-07-10T07:24:44;20.40;99.60
21844;DHT22;11084;52.482;9.108;2022-07-10T07:27:11;20.50;99.50
21844;DHT22;11084;52.482;9.108;2022-07-10T07:29:37;20.40;98.60
21844;DHT22;11084;52.482;9.108;2022-07-10T07:32:04;20.40;98.40
21844;DHT22;11084;52.482;9.108;2022-07-10T07:34:30;20.20;98.10
21844;DHT22;11084;52.482;9.108;2022-07-10T07:36:57;20.10;98.10
21844;DHT22;11084;52.482;9.108;2022-07-10T07:39:23;19.90;98.00
21844;DHT22;11084;52.482;9.108;2022-07-10T07:41:49;19.70;96.80
21844;DHT22;11084;52.482;9.108;2022-07-10T07:44:15;19.80;97.10
21844;DHT22;11084;52.482;9.108;2022-07-10T07:46:43;19.70;96.90
21844;DHT22;11084;52.482;9.108;2022-07-10T07:49:10;19.80;97.00
21844;DHT22;11084;52.482;9.108;2022-07-10T07:51:36;19.70;97.10
21844;DHT22;11084;52.482;9.108;2022-07-10T07:54:02;19.60;97.50
21844;DHT22;11084;52.482;9.108;2022-07-10T07:56:28;19.50;98.00
21844;DHT22;11084;52.482;9.108;2022-07-10T07:58:54;19.40;98.10
21844;DHT22;11084;52.482;9.108;2022-07-10T08:01:20;19.40;98.30
21844;DHT22;11084;52.482;9.108;2022-07-10T08:03:45;19.30;98.70
21844;DHT22;11084;52.482;9.108;2022-07-10T08:06:11;19.30;98.90
21844;DHT22;11084;52.482;9.108;2022-07-10T08:08:37;19.40;99.20
21844;DHT22;11084;52.482;9.108;2022-07-10T08:11:03;19.60;99.20
21844;DHT22;11084;52.482;9.108;2022-07-10T08:13:30;20.40;98.30
21844;DHT22;11084;52.482;9.108;2022-07-10T08:15:58;20.70;97.80
21844;DHT22;11084;52.482;9.108;2022-07-10T08:18:24;20.90;97.40
21844;DHT22;11084;52.482;9.108;2022-07-10T08:20:50;21.10;97.10
21844;DHT22;11084;52.482;9.108;2022-07-10T08:23:16;21.40;96.30
21844;DHT22;11084;52.482;9.108;2022-07-10T08:25:43;21.60;96.30
21844;DHT22;11084;52.482;9.108;2022-07-10T08:28:09;22.10;95.50
21844;DHT22;11084;52.482;9.108;2022-07-10T08:30:38;22.40;94.20
21844;DHT22;11084;52.482;9.108;2022-07-10T08:33:04;22.70;94.30
21844;DHT22;11084;52.482;9.108;2022-07-10T08:35:30;23.00;91.70
21844;DHT22;11084;52.482;9.108;2022-07-10T08:37:57;23.30;90.80
21844;DHT22;11084;52.482;9.108;2022-07-10T08:40:23;23.30;88.60
21844;DHT22;11084;52.482;9.108;2022-07-10T08:42:49;23.30;91.70
21844;DHT22;11084;52.482;9.108;2022-07-10T08:45:15;23.10;91.40
21844;DHT22;11084;52.482;9.108;2022-07-10T08:47:42;22.90;91.10
21844;DHT22;11084;52.482;9.108;2022-07-10T08:50:18;23.00;91.20
21844;DHT22;11084;52.482;9.108;2022-07-10T08:52:52;23.20;90.20
21844;DHT22;11084;52.482;9.108;2022-07-10T08:55:27;23.30;90.10
21844;DHT22;11084;52.482;9.108;2022-07-10T08:57:53;23.40;90.10
21844;DHT22;11084;52.482;9.108;2022-07-10T09:00:24;23.80;87.70
21844;DHT22;11084;52.482;9.108;2022-07-10T09:02:50;23.80;88.30
21844;DHT22;11084;52.482;9.108;2022-07-10T09:05:19;23.80;87.30
21844;DHT22;11084;52.482;9.108;2022-07-10T09:07:45;23.50;83.10
21844;DHT22;11084;52.482;9.108;2022-07-10T09:10:11;23.50;85.10
21844;DHT22;11084;52.482;9.108;2022-07-10T09:12:56;23.00;83.10
21844;DHT22;11084;52.482;9.108;2022-07-10T09:15:30;22.70;83.20
21844;DHT22;11084;52.482;9.108;2022-07-10T09:18:04;22.50;83.20
21844;DHT22;11084;52.482;9.108;2022-07-10T09:20:35;22.40;83.00
21844;DHT22;11084;52.482;9.108;2022-07-10T09:23:29;22.30;82.10
21844;DHT22;11084;52.482;9.108;2022-07-10T09:25:55;22.30;84.10
21844;DHT22;11084;52.482;9.108;2022-07-10T09:28:22;22.00;82.30
21844;DHT22;11084;52.482;9.108;2022-07-10T09:30:49;22.50;82.10
21844;DHT22;11084;52.482;9.108;2022-07-10T09:33:26;22.70;81.50
21844;DHT22;11084;52.482;9.108;2022-07-10T09:36:08;22.70;81.80
21844;DHT22;11084;52.482;9.108;2022-07-10T09:43:51;23.20;80.30
21844;DHT22;11084;52.482;9.108;2022-07-10T09:46:35;23.30;79.10
21844;DHT22;11084;52.482;9.108;2022-07-10T09:49:03;23.20;78.20
21844;DHT22;11084;52.482;9.108;2022-07-10T09:51:33;23.00;77.70
21844;DHT22;11084;52.482;9.108;2022-07-10T09:54:02;23.00;77.70
21844;DHT22;11084;52.482;9.108;2022-07-10T09:56:50;23.00;76.40
21844;DHT22;11084;52.482;9.108;2022-07-10T09:59:18;23.00;74.30
21844;DHT22;11084;52.482;9.108;2022-07-10T10:01:46;22.90;76.10
21844;DHT22;11084;52.482;9.108;2022-07-10T10:04:18;22.90;76.40
21844;DHT22;11084;52.482;9.108;2022-07-10T10:06:55;23.00;76.30
21844;DHT22;11084;52.482;9.108;2022-07-10T10:09:37;23.40;76.10
21844;DHT22;11084;52.482;9.108;2022-07-10T10:12:16;23.60;75.30
21844;DHT22;11084;52.482;9.108;2022-07-10T10:14:44;23.60;73.50
21844;DHT22;11084;52.482;9.108;2022-07-10T10:17:10;23.60;73.60
21844;DHT22;11084;52.482;9.108;2022-07-10T10:19:38;23.40;73.00
21844;DHT22;11084;52.482;9.108;2022-07-10T10:22:23;23.40;73.80
21844;DHT22;11084;52.482;9.108;2022-07-10T10:24:50;23.40;74.40
21844;DHT22;11084;52.482;9.108;2022-07-10T10:27:18;23.30;74.40
21844;DHT22;11084;52.482;9.108;2022-07-10T10:29:45;23.10;74.20
21844;DHT22;11084;52.482;9.108;2022-07-10T10:32:12;22.70;74.10
21844;DHT22;11084;52.482;9.108;2022-07-10T10:34:48;22.70;75.10
21844;DHT22;11084;52.482;9.108;2022-07-10T10:39:54;22.50;75.80
21844;DHT22;11084;52.482;9.108;2022-07-10T10:42:50;22.30;76.00
21844;DHT22;11084;52.482;9.108;2022-07-10T10:45:32;22.40;75.70
21844;DHT22;11084;52.482;9.108;2022-07-10T10:48:11;22.10;76.90
21844;DHT22;11084;52.482;9.108;2022-07-10T10:50:49;21.90;76.80
21844;DHT22;11084;52.482;9.108;2022-07-10T10:53:24;22.00;77.80
21844;DHT22;11084;52.482;9.108;2022-07-10T10:58:27;21.70;78.40
21844;DHT22;11084;52.482;9.108;2022-07-10T11:01:04;21.70;79.00
21844;DHT22;11084;52.482;9.108;2022-07-10T11:03:31;21.70;78.90
21844;DHT22;11084;52.482;9.108;2022-07-10T11:05:58;21.60;79.20
21844;DHT22;11084;52.482;9.108;2022-07-10T11:08:38;21.60;79.70
21844;DHT22;11084;52.482;9.108;2022-07-10T11:11:46;21.50;80.50
21844;DHT22;11084;52.482;9.108;2022-07-10T11:14:11;21.50;81.70
21844;DHT22;11084;52.482;9.108;2022-07-10T11:16:45;21.30;81.50
21844;DHT22;11084;52.482;9.108;2022-07-10T11:19:12;21.20;81.60
21844;DHT22;11084;52.482;9.108;2022-07-10T11:21:46;21.20;82.40
21844;DHT22;11084;52.482;9.108;2022-07-10T11:24:38;21.20;83.10
21844;DHT22;11084;52.482;9.108;2022-07-10T11:27:15;21.00;84.00
21844;DHT22;11084;52.482;9.108;2022-07-10T11:29:46;20.90;84.50
21844;DHT22;11084;52.482;9.108;2022-07-10T11:32:17;20.80;85.00
21844;DHT22;11084;52.482;9.108;2022-07-10T11:34:43;20.80;85.50
21844;DHT22;11084;52.482;9.108;2022-07-10T11:37:16;20.70;86.20
21844;DHT22;11084;52.482;9.108;2022-07-10T11:39:42;20.70;86.60
21844;DHT22;11084;52.482;9.108;2022-07-10T11:42:09;20.70;87.10
21844;DHT22;11084;52.482;9.108;2022-07-10T11:44:35;20.60;87.60
21844;DHT22;11084;52.482;9.108;2022-07-10T11:47:01;20.50;88.00
21844;DHT22;11084;52.482;9.108;2022-07-10T11:49:30;20.50;88.50
21844;DHT22;11084;52.482;9.108;2022-07-10T11:52:04;20.50;89.20
21844;DHT22;11084;52.482;9.108;2022-07-10T11:54:33;20.40;89.70
21844;DHT22;11084;52.482;9.108;2022-07-10T11:57:05;20.40;90.20
21844;DHT22;11084;52.482;9.108;2022-07-10T11:59:33;20.40;90.80
21844;DHT22;11084;52.482;9.108;2022-07-10T12:01:59;20.20;93.00
21844;DHT22;11084;52.482;9.108;2022-07-10T12:04:30;20.20;92.60
21844;DHT22;11084;52.482;9.108;2022-07-10T12:06:57;20.20;93.00
21844;DHT22;11084;52.482;9.108;2022-07-10T12:09:23;20.20;93.60
21844;DHT22;11084;52.482;9.108;2022-07-10T12:12:00;20.30;93.40
21844;DHT22;11084;52.482;9.108;2022-07-10T12:14:27;20.40;93.40
21844;DHT22;11084;52.482;9.108;2022-07-10T12:16:54;20.50;93.40
21844;DHT22;11084;52.482;9.108;2022-07-10T12:19:30;20.60;93.50
21844;DHT22;11084;52.482;9.108;2022-07-10T12:22:04;20.70;93.40
21844;DHT22;11084;52.482;9.108;2022-07-10T12:24:31;20.70;93.40
21844;DHT22;11084;52.482;9.108;2022-07-10T12:26:57;20.80;93.40
21844;DHT22;11084;52.482;9.108;2022-07-10T12:29:26;20.80;93.70
21844;DHT22;11084;52.482;9.108;2022-07-10T12:32:01;20.80;93.40
21844;DHT22;11084;52.482;9.108;2022-07-10T12:34:35;20.90;93.30
21844;DHT22;11084;52.482;9.108;2022-07-10T12:37:12;20.90;93.30
21844;DHT22;11084;52.482;9.108;2022-07-10T12:39:50;20.80;93.10
21844;DHT22;11084;52.482;9.108;2022-07-10T12:42:30;20.90;93.70
21844;DHT22;11084;52.482;9.108;2022-07-10T12:45:13;20.90;92.80
21844;DHT22;11084;52.482;9.108;2022-07-10T12:47:47;21.00;92.70
21844;DHT22;11084;52.482;9.108;2022-07-10T12:50:14;21.10;92.60
21844;DHT22;11084;52.482;9.108;2022-07-10T12:52:42;21.10;92.40
21844;DHT22;11084;52.482;9.108;2022-07-10T12:55:20;21.20;92.40
21844;DHT22;11084;52.482;9.108;2022-07-10T12:58:05;21.20;92.00
21844;DHT22;11084;52.482;9.108;2022-07-10T13:00:46;21.10;92.00
21844;DHT22;11084;52.482;9.108;2022-07-10T13:03:20;21.10;91.70
21844;DHT22;11084;52.482;9.108;2022-07-10T13:05:50;21.10;91.60
21844;DHT22;11084;52.482;9.108;2022-07-10T13:08:20;21.10;91.50
21844;DHT22;11084;52.482;9.108;2022-07-10T13:10:50;21.20;91.20
21844;DHT22;11084;52.482;9.108;2022-07-10T13:13:21;21.30;90.50
21844;DHT22;11084;52.482;9.108;2022-07-10T13:15:48;21.30;90.60
21844;DHT22;11084;52.482;9.108;2022-07-10T13:18:20;21.50;90.90
21844;DHT22;11084;52.482;9.108;2022-07-10T13:20:52;21.50;90.80
21844;DHT22;11084;52.482;9.108;2022-07-10T13:23:20;21.50;91.00
21844;DHT22;11084;52.482;9.108;2022-07-10T13:25:49;21.50;90.50
21844;DHT22;11084;52.482;9.108;2022-07-10T13:28:15;21.50;90.10
21844;DHT22;11084;52.482;9.108;2022-07-10T13:30:42;21.60;89.40
21844;DHT22;11084;52.482;9.108;2022-07-10T13:33:09;21.60;89.10
21844;DHT22;11084;52.482;9.108;2022-07-10T13:35:36;21.60;89.20
21844;DHT22;11084;52.482;9.108;2022-07-10T13:38:03;21.40;88.90
21844;DHT22;11084;52.482;9.108;2022-07-10T13:40:35;21.30;89.30
21844;DHT22;11084;52.482;9.108;2022-07-10T13:43:03;21.20;88.90
21844;DHT22;11084;52.482;9.108;2022-07-10T13:45:30;21.20;89.60
21844;DHT22;11084;52.482;9.108;2022-07-10T13:48:03;21.20;89.40
21844;DHT22;11084;52.482;9.108;2022-07-10T13:50:30;21.10;89.30
21844;DHT22;11084;52.482;9.108;2022-07-10T13:52:57;21.20;89.90
21844;DHT22;11084;52.482;9.108;2022-07-10T13:55:23;21.30;89.80
21844;DHT22;11084;52.482;9.108;2022-07-10T13:57:51;21.30;89.60
21844;DHT22;11084;52.482;9.108;2022-07-10T14:00:17;21.40;89.50
21844;DHT22;11084;52.482;9.108;2022-07-10T14:02:43;21.40;89.40
21844;DHT22;11084;52.482;9.108;2022-07-10T14:05:09;21.50;89.60
21844;DHT22;11084;52.482;9.108;2022-07-10T14:07:35;21.50;90.00
21844;DHT22;11084;52.482;9.108;2022-07-10T14:10:01;21.50;89.80
21844;DHT22;11084;52.482;9.108;2022-07-10T14:12:27;21.40;90.00
21844;DHT22;11084;52.482;9.108;2022-07-10T14:14:53;21.30;89.80
21844;DHT22;11084;52.482;9.108;2022-07-10T14:17:20;21.40;90.10
21844;DHT22;11084;52.482;9.108;2022-07-10T14:19:46;21.40;90.10
21844;DHT22;11084;52.482;9.108;2022-07-10T14:24:39;21.30;89.90
21844;DHT22;11084;52.482;9.108;2022-07-10T14:27:05;21.30;90.10
21844;DHT22;11084;52.482;9.108;2022-07-10T14:29:31;21.40;90.40
21844;DHT22;11084;52.482;9.108;2022-07-10T14:34:24;21.50;90.30
21844;DHT22;11084;52.482;9.108;2022-07-10T14:36:53;21.50;90.50
21844;DHT22;11084;52.482;9.108;2022-07-10T14:39:19;21.50;90.50
21844;DHT22;11084;52.482;9.108;2022-07-10T14:41:45;21.20;90.20
21844;DHT22;11084;52.482;9.108;2022-07-10T14:44:11;21.10;90.30
21844;DHT22;11084;52.482;9.108;2022-07-10T14:46:37;21.10;90.60
21844;DHT22;11084;52.482;9.108;2022-07-10T14:49:04;21.10;90.80
21844;DHT22;11084;52.482;9.108;2022-07-10T14:51:30;21.20;90.80
21844;DHT22;11084;52.482;9.108;2022-07-10T14:53:56;21.20;91.40
21844;DHT22;11084;52.482;9.108;2022-07-10T14:56:23;21.20;91.10
21844;DHT22;11084;52.482;9.108;2022-07-10T14:58:49;21.20;91.00
21844;DHT22;11084;52.482;9.108;2022-07-10T15:01:15;21.20;91.10
21844;DHT22;11084;52.482;9.108;2022-07-10T15:03:43;21.20;90.80
21844;DHT22;11084;52.482;9.108;2022-07-10T15:06:09;21.20;90.80
21844;DHT22;11084;52.482;9.108;2022-07-10T15:08:36;21.10;91.10
21844;DHT22;11084;52.482;9.108;2022-07-10T15:11:02;21.10;91.10
21844;DHT22;11084;52.482;9.108;2022-07-10T15:13:30;21.00;91.10
21844;DHT22;11084;52.482;9.108;2022-07-10T15:15:56;21.00;91.40
21844;DHT22;11084;52.482;9.108;2022-07-10T15:18:22;21.00;91.20
21844;DHT22;11084;52.482;9.108;2022-07-10T15:20:48;21.00;91.30
21844;DHT22;11084;52.482;9.108;2022-07-10T15:23:15;21.00;91.30
21844;DHT22;11084;52.482;9.108;2022-07-10T15:25:41;20.90;91.60
21844;DHT22;11084;52.482;9.108;2022-07-10T15:28:09;21.00;91.60
21844;DHT22;11084;52.482;9.108;2022-07-10T15:30:38;21.00;91.50
21844;DHT22;11084;52.482;9.108;2022-07-10T15:33:06;20.90;91.70
21844;DHT22;11084;52.482;9.108;2022-07-10T15:35:32;20.80;91.60
21844;DHT22;11084;52.482;9.108;2022-07-10T15:37:58;20.80;91.50
21844;DHT22;11084;52.482;9.108;2022-07-10T15:40:27;20.60;91.40
21844;DHT22;11084;52.482;9.108;2022-07-10T15:42:54;20.60;91.80
21844;DHT22;11084;52.482;9.108;2022-07-10T15:45:22;20.60;91.90
21844;DHT22;11084;52.482;9.108;2022-07-10T15:47:49;20.70;92.20
21844;DHT22;11084;52.482;9.108;2022-07-10T15:50:15;20.60;91.80
21844;DHT22;11084;52.482;9.108;2022-07-10T15:52:41;20.50;91.90
21844;DHT22;11084;52.482;9.108;2022-07-10T15:55:08;20.50;91.90
21844;DHT22;11084;52.482;9.108;2022-07-10T15:57:34;20.50;92.20
21844;DHT22;11084;52.482;9.108;2022-07-10T16:00:00;20.60;92.20
21844;DHT22;11084;52.482;9.108;2022-07-10T16:02:26;20.60;92.30
21844;DHT22;11084;52.482;9.108;2022-07-10T16:04:52;20.60;92.60